Time;durP1;ratioP1;P1;durP2;ratioP2;P2;SDS_P1;SDS_P2;PMS_P1;PMS_P2;Temp;Humidity;BMP_temperature;BMP_pressure;BME280_temperature;BME280_humidity;BME280_pressure;Samples;Min_cycle;Max_cycle;Signal;HPM_P1;HPM_P2
2024/01/26 00:00:47;;;;;;;0.80;0.65;;;;;;;;;;5020663;28;20022;-85
2024/01/26 00:03:12;;;;;;;1.13;1.00;;;;;;;;;;5022407;28;20029;-86
2024/01/26 00:05:38;;;;;;;1.50;1.40;;;;;;;;;;5025750;28;20032;-86
2024/01/26 00:08:03;;;;;;;1.40;1.30;;;;;;;;;;5026685;28;20448;-86
2024/01/26 00:10:29;;;;;;;2.63;0.80;;;;;;;;;;5023421;28;20026;-86
2024/01/26 00:12:54;;;;;;;1.80;1.33;;;;;;;;;;5022244;28;20053;-87
2024/01/26 00:15:19;;;;;;;3.97;1.67;;;;;;;;;;5022910;28;20056;-87
2024/01/26 00:17:45;;;;;;;1.90;1.70;;;;;;;;;;5022854;28;20145;-88
2024/01/26 00:20:10;;;;;;;1.50;1.40;;;;;;;;;;5021214;28;20030;-87
2024/01/26 00:22:36;;;;;;;3.47;2.00;;;;;;;;;;5022269;28;20030;-86
2024/01/26 00:25:01;;;;;;;1.77;1.65;;;;;;;;;;5019706;28;20053;-87
2024/01/26 00:27:26;;;;;;;1.50;1.40;;;;;;;;;;5021032;28;20030;-87
2024/01/26 00:29:52;;;;;;;1.85;1.33;;;;;;;;;;5020391;28;20025;-88
2024/01/26 00:32:17;;;;;;;1.70;1.38;;;;;;;;;;5017636;28;20029;-87
2024/01/26 00:34:42;;;;;;;1.75;1.60;;;;;;;;;;5017722;28;20034;-87
2024/01/26 00:37:08;;;;;;;2.17;1.70;;;;;;;;;;5015419;28;20123;-87
2024/01/26 00:39:33;;;;;;;1.15;1.02;;;;;;;;;;5016237;28;20022;-87
2024/01/26 00:41:58;;;;;;;3.08;1.50;;;;;;;;;;5014359;28;20030;-88
2024/01/26 00:44:24;;;;;;;1.27;1.17;;;;;;;;;;5014430;28;20455;-88
2024/01/26 00:46:49;;;;;;;1.50;1.40;;;;;;;;;;5025196;28;20022;-89
2024/01/26 00:49:14;;;;;;;1.35;1.08;;;;;;;;;;5034680;28;20068;-89
2024/01/26 00:51:40;;;;;;;2.53;0.93;;;;;;;;;;5035748;28;20018;-91
2024/01/26 00:54:05;;;;;;;1.13;1.08;;;;;;;;;;5025540;28;20041;-88
2024/01/26 00:56:30;;;;;;;2.13;1.50;;;;;;;;;;5016959;28;20026;-88
2024/01/26 00:58:56;;;;;;;2.65;1.00;;;;;;;;;;5018568;28;20112;-88
2024/01/26 01:01:23;;;;;;;1.98;1.05;;;;;;;;;;5017931;28;20022;-89
2024/01/26 01:03:49;;;;;;;1.55;1.20;;;;;;;;;;5014806;28;20064;-89
2024/01/26 01:06:14;;;;;;;0.88;0.88;;;;;;;;;;5012743;28;20034;-89
2024/01/26 01:08:39;;;;;;;1.15;1.05;;;;;;;;;;5015452;28;20030;-89
2024/01/26 01:11:06;;;;;;;1.13;1.02;;;;;;;;;;5017419;28;20034;-88
2024/01/26 01:13:31;;;;;;;2.13;1.00;;;;;;;;;;5013949;28;20030;-88
2024/01/26 01:15:57;;;;;;;0.50;0.50;;;;;;;;;;5016345;28;20386;-87
2024/01/26 01:18:22;;;;;;;0.93;0.93;;;;;;;;;;5011325;28;20045;-87
2024/01/26 01:20:47;;;;;;;0.65;0.65;;;;;;;;;;5014683;28;20030;-89
2024/01/26 01:23:15;;;;;;;0.75;0.70;;;;;;;;;;5014161;28;20021;-88
2024/01/26 01:25:40;;;;;;;1.00;1.00;;;;;;;;;;5011410;28;20095;-88
2024/01/26 01:28:06;;;;;;;1.02;0.90;;;;;;;;;;5012965;28;20025;-89
2024/01/26 01:30:31;;;;;;;0.77;0.77;;;;;;;;;;5014629;28;20026;-88
2024/01/26 01:32:56;;;;;;;0.70;0.70;;;;;;;;;;5013192;28;20452;-88
2024/01/26 01:35:22;;;;;;;0.55;0.55;;;;;;;;;;5015304;28;20026;-89
2024/01/26 01:37:47;;;;;;;0.52;0.52;;;;;;;;;;5016419;28;20164;-90
2024/01/26 01:40:12;;;;;;;0.70;0.70;;;;;;;;;;5017251;28;20053;-87
2024/01/26 01:42:38;;;;;;;0.80;0.80;;;;;;;;;;5014493;28;20033;-89
2024/01/26 01:45:13;;;;;;;0.50;0.50;;;;;;;;;;5016423;28;20021;-87
2024/01/26 01:47:38;;;;;;;0.70;0.70;;;;;;;;;;5010260;28;20036;-88
2024/01/26 01:50:05;;;;;;;0.65;0.65;;;;;;;;;;5017632;28;20010;-88
2024/01/26 01:52:30;;;;;;;1.38;1.10;;;;;;;;;;5015783;28;20049;-88
2024/01/26 01:55:00;;;;;;;0.60;0.60;;;;;;;;;;5017378;28;20021;-88
2024/01/26 01:57:26;;;;;;;0.57;0.57;;;;;;;;;;5015636;28;20052;-88
2024/01/26 01:59:53;;;;;;;0.40;0.40;;;;;;;;;;5016551;28;20037;-90
2024/01/26 02:02:19;;;;;;;0.57;0.57;;;;;;;;;;5015806;28;20085;-87
2024/01/26 02:04:44;;;;;;;0.45;0.45;;;;;;;;;;5027712;28;20038;-88
2024/01/26 02:07:10;;;;;;;0.50;0.50;;;;;;;;;;5027003;28;20032;-88
2024/01/26 02:09:35;;;;;;;0.60;0.60;;;;;;;;;;5023318;28;20025;-87
2024/01/26 02:12:01;;;;;;;0.63;0.60;;;;;;;;;;5016817;28;20060;-88
2024/01/26 02:14:26;;;;;;;0.57;0.55;;;;;;;;;;5020303;28;20050;-88
2024/01/26 02:16:57;;;;;;;0.40;0.40;;;;;;;;;;5025024;28;20041;-88
2024/01/26 02:19:23;;;;;;;0.52;0.50;;;;;;;;;;5022126;28;20021;-88
2024/01/26 02:21:49;;;;;;;0.50;0.50;;;;;;;;;;5021246;28;20388;-88
2024/01/26 02:24:14;;;;;;;0.60;0.60;;;;;;;;;;5022320;28;20022;-88
2024/01/26 02:26:40;;;;;;;0.57;0.57;;;;;;;;;;5019970;28;20030;-87
2024/01/26 02:29:06;;;;;;;0.52;0.52;;;;;;;;;;5022836;28;20077;-88
2024/01/26 02:31:32;;;;;;;1.55;0.75;;;;;;;;;;5021842;28;20037;-87
2024/01/26 02:33:57;;;;;;;0.60;0.60;;;;;;;;;;5021513;28;20397;-88
2024/01/26 02:36:23;;;;;;;0.98;0.60;;;;;;;;;;5021750;28;20034;-87
2024/01/26 02:38:48;;;;;;;0.77;0.77;;;;;;;;;;5021345;28;20026;-87
2024/01/26 02:41:13;;;;;;;0.50;0.50;;;;;;;;;;5023313;28;20076;-87
2024/01/26 02:43:39;;;;;;;0.80;0.80;;;;;;;;;;5022469;28;20028;-87
2024/01/26 02:46:11;;;;;;;0.77;0.77;;;;;;;;;;5019378;28;20125;-88
2024/01/26 02:48:37;;;;;;;;;;;;;;;;;;5024706;28;20761;-87
2024/01/26 02:51:02;;;;;;;2.47;1.23;;;;;;;;;;5022098;28;19944;-87
2024/01/26 02:53:27;;;;;;;2.30;0.93;;;;;;;;;;5022391;28;20025;-88
2024/01/26 02:55:53;;;;;;;0.88;0.60;;;;;;;;;;5022214;28;20373;-88
2024/01/26 02:58:18;;;;;;;0.60;0.60;;;;;;;;;;5024322;28;20034;-87
2024/01/26 03:00:44;;;;;;;0.63;0.50;;;;;;;;;;5023597;28;20018;-87
2024/01/26 03:03:09;;;;;;;0.55;0.55;;;;;;;;;;5022128;28;20060;-87
2024/01/26 03:05:35;;;;;;;3.92;0.82;;;;;;;;;;5022239;28;20114;-87
2024/01/26 03:08:00;;;;;;;0.98;0.60;;;;;;;;;;5023225;28;20056;-89
2024/01/26 03:10:26;;;;;;;0.45;0.40;;;;;;;;;;5023920;28;20504;-89
2024/01/26 03:12:51;;;;;;;0.65;0.50;;;;;;;;;;5017499;28;20038;-89
2024/01/26 03:15:16;;;;;;;0.55;0.52;;;;;;;;;;5023123;28;20045;-88
2024/01/26 03:17:42;;;;;;;0.57;0.57;;;;;;;;;;5024245;28;20022;-87
2024/01/26 03:20:10;;;;;;;0.22;0.22;;;;;;;;;;5027589;28;20480;-87
2024/01/26 03:22:35;;;;;;;0.63;0.60;;;;;;;;;;5017393;28;20057;-88
2024/01/26 03:25:01;;;;;;;0.55;0.52;;;;;;;;;;5018595;28;20383;-87
2024/01/26 03:27:27;;;;;;;0.52;0.52;;;;;;;;;;5020311;28;20085;-89
2024/01/26 03:29:52;;;;;;;0.30;0.30;;;;;;;;;;5017527;28;20029;-89
2024/01/26 03:32:18;;;;;;;0.40;0.40;;;;;;;;;;5011415;28;20101;-89
2024/01/26 03:34:43;;;;;;;0.30;0.30;;;;;;;;;;5013463;28;20022;-88
2024/01/26 03:37:09;;;;;;;0.50;0.50;;;;;;;;;;5019608;28;20484;-88
2024/01/26 03:39:34;;;;;;;0.90;0.90;;;;;;;;;;5020225;28;20113;-88
2024/01/26 03:42:00;;;;;;;0.22;0.22;;;;;;;;;;5018954;28;20033;-88
2024/01/26 03:44:25;;;;;;;0.43;0.38;;;;;;;;;;5009363;28;20026;-89
2024/01/26 03:46:50;;;;;;;0.40;0.40;;;;;;;;;;5012505;28;20105;-89
2024/01/26 03:49:16;;;;;;;0.30;0.30;;;;;;;;;;5018807;28;20040;-89
2024/01/26 03:51:41;;;;;;;0.60;0.60;;;;;;;;;;5020408;28;20049;-90
2024/01/26 03:54:06;;;;;;;0.50;0.50;;;;;;;;;;5019771;28;20025;-88
2024/01/26 03:56:31;;;;;;;0.60;0.60;;;;;;;;;;5014564;28;20072;-90
2024/01/26 03:58:57;;;;;;;0.25;0.25;;;;;;;;;;5017902;28;20022;-87
2024/01/26 04:01:22;;;;;;;0.30;0.30;;;;;;;;;;5018262;28;20182;-87
2024/01/26 04:03:48;;;;;;;0.50;0.50;;;;;;;;;;5017122;28;20029;-88
2024/01/26 04:06:13;;;;;;;0.52;0.52;;;;;;;;;;5017544;28;20034;-88
2024/01/26 04:08:39;;;;;;;0.38;0.38;;;;;;;;;;5018196;28;20029;-88
2024/01/26 04:11:04;;;;;;;0.40;0.40;;;;;;;;;;5019611;28;20022;-87
2024/01/26 04:13:29;;;;;;;0.60;0.60;;;;;;;;;;5017688;28;20018;-87
2024/01/26 04:15:55;;;;;;;0.50;0.50;;;;;;;;;;5017957;28;20022;-88
2024/01/26 04:18:20;;;;;;;1.02;0.40;;;;;;;;;;5017499;28;20033;-87
2024/01/26 04:20:49;;;;;;;2.00;0.80;;;;;;;;;;5008440;28;20021;-87
2024/01/26 04:23:15;;;;;;;0.70;0.70;;;;;;;;;;5010935;28;20021;-87
2024/01/26 04:25:41;;;;;;;0.68;0.65;;;;;;;;;;5014842;28;20030;-86
2024/01/26 04:28:07;;;;;;;0.63;0.63;;;;;;;;;;5016580;28;20143;-87
2024/01/26 04:30:32;;;;;;;0.45;0.45;;;;;;;;;;5018776;28;20022;-87
2024/01/26 04:32:57;;;;;;;0.60;0.60;;;;;;;;;;5018488;28;20088;-87
2024/01/26 04:35:23;;;;;;;1.85;0.65;;;;;;;;;;5016106;28;20025;-87
2024/01/26 04:37:48;;;;;;;0.50;0.50;;;;;;;;;;5017214;28;20084;-88
2024/01/26 04:40:13;;;;;;;0.70;0.70;;;;;;;;;;5018413;28;20044;-87
2024/01/26 04:42:39;;;;;;;0.65;0.65;;;;;;;;;;5017275;28;20049;-87
2024/01/26 04:45:05;;;;;;;0.50;0.50;;;;;;;;;;5016437;28;20115;-87
2024/01/26 04:47:31;;;;;;;3.83;0.80;;;;;;;;;;5017912;28;20051;-87
2024/01/26 04:49:56;;;;;;;0.60;0.60;;;;;;;;;;5016470;28;20049;-88
2024/01/26 04:52:21;;;;;;;0.63;0.63;;;;;;;;;;5016006;28;20104;-88
2024/01/26 04:54:48;;;;;;;0.80;0.80;;;;;;;;;;5017835;28;20076;-87
2024/01/26 04:57:13;;;;;;;0.45;0.45;;;;;;;;;;5016873;28;20105;-88
2024/01/26 04:59:39;;;;;;;0.68;0.68;;;;;;;;;;5016660;28;20148;-87
2024/01/26 05:02:04;;;;;;;0.55;0.55;;;;;;;;;;5016861;28;20029;-88
2024/01/26 05:04:29;;;;;;;0.82;0.80;;;;;;;;;;5016868;28;20053;-87
2024/01/26 05:06:55;;;;;;;0.80;0.80;;;;;;;;;;5016103;28;20026;-87
2024/01/26 05:09:21;;;;;;;0.60;0.60;;;;;;;;;;5016055;28;20017;-87
2024/01/26 05:11:47;;;;;;;2.08;0.80;;;;;;;;;;5016086;28;20018;-89
2024/01/26 05:14:12;;;;;;;0.50;0.50;;;;;;;;;;5017918;28;20026;-88
2024/01/26 05:16:37;;;;;;;1.02;0.88;;;;;;;;;;5017414;28;20049;-88
2024/01/26 05:19:03;;;;;;;0.70;0.70;;;;;;;;;;5014200;28;20050;-87
2024/01/26 05:21:28;;;;;;;0.60;0.60;;;;;;;;;;5010334;28;20030;-89
2024/01/26 05:23:54;;;;;;;0.60;0.60;;;;;;;;;;5014840;28;20053;-89
2024/01/26 05:26:19;;;;;;;0.75;0.75;;;;;;;;;;5014981;28;20100;-89
2024/01/26 05:28:45;;;;;;;0.60;0.60;;;;;;;;;;5016290;28;20034;-89
2024/01/26 05:31:11;;;;;;;0.75;0.73;;;;;;;;;;5013177;28;20026;-88
2024/01/26 05:33:37;;;;;;;4.55;0.73;;;;;;;;;;5015303;28;20018;-88
2024/01/26 05:36:03;;;;;;;0.77;0.77;;;;;;;;;;5016431;28;20036;-89
2024/01/26 05:38:28;;;;;;;0.50;0.50;;;;;;;;;;5013587;28;20033;-88
2024/01/26 05:40:53;;;;;;;0.45;0.45;;;;;;;;;;5019281;28;20036;-88
2024/01/26 05:43:19;;;;;;;0.55;0.55;;;;;;;;;;5015406;28;20021;-87
2024/01/26 05:45:44;;;;;;;0.70;0.70;;;;;;;;;;5015029;28;20040;-87
2024/01/26 05:48:09;;;;;;;0.52;0.52;;;;;;;;;;5028529;28;20049;-89
2024/01/26 05:50:35;;;;;;;0.38;0.38;;;;;;;;;;5021912;28;20069;-88
2024/01/26 05:53:02;;;;;;;1.85;0.88;;;;;;;;;;5014962;28;20026;-88
2024/01/26 05:55:27;;;;;;;0.57;0.57;;;;;;;;;;5013823;28;20030;-88
2024/01/26 05:57:53;;;;;;;0.50;0.50;;;;;;;;;;5014856;28;20424;-88
2024/01/26 06:00:18;;;;;;;0.52;0.52;;;;;;;;;;5014886;28;20018;-88
2024/01/26 06:02:44;;;;;;;0.70;0.70;;;;;;;;;;5013202;28;20028;-88
2024/01/26 06:05:09;;;;;;;1.65;1.15;;;;;;;;;;5013627;28;20076;-88
2024/01/26 06:07:34;;;;;;;1.10;0.77;;;;;;;;;;5016654;28;20080;-88
2024/01/26 06:10:00;;;;;;;0.60;0.60;;;;;;;;;;5014011;28;20083;-89
2024/01/26 06:12:25;;;;;;;1.13;0.90;;;;;;;;;;5013400;28;20033;-86
2024/01/26 06:14:50;;;;;;;0.30;0.30;;;;;;;;;;5005644;28;20498;-87
2024/01/26 06:17:15;;;;;;;0.40;0.40;;;;;;;;;;5015065;28;20043;-87
2024/01/26 06:19:41;;;;;;;0.60;0.60;;;;;;;;;;5009302;28;20036;-87
2024/01/26 06:22:06;;;;;;;0.63;0.60;;;;;;;;;;5016284;28;20018;-87
2024/01/26 06:24:31;;;;;;;0.60;0.52;;;;;;;;;;5013223;28;20026;-87
2024/01/26 06:26:57;;;;;;;0.50;0.50;;;;;;;;;;5014771;28;20025;-88
2024/01/26 06:29:22;;;;;;;0.55;0.55;;;;;;;;;;4996178;28;20034;-87
2024/01/26 06:31:48;;;;;;;1.15;0.90;;;;;;;;;;4994066;28;20026;-87
2024/01/26 06:34:13;;;;;;;0.60;0.60;;;;;;;;;;5009643;28;20022;-88
2024/01/26 06:36:39;;;;;;;1.77;0.98;;;;;;;;;;5014222;28;20666;-88
2024/01/26 06:39:04;;;;;;;1.02;0.90;;;;;;;;;;5014554;28;20075;-88
2024/01/26 06:41:30;;;;;;;1.30;1.00;;;;;;;;;;5013019;28;20507;-88
2024/01/26 06:43:55;;;;;;;0.63;0.63;;;;;;;;;;5013701;28;20014;-88
2024/01/26 06:46:22;;;;;;;0.50;0.50;;;;;;;;;;5014615;28;20049;-87
2024/01/26 06:48:48;;;;;;;1.05;0.80;;;;;;;;;;5012502;28;20014;-88
2024/01/26 06:51:14;;;;;;;0.77;0.77;;;;;;;;;;5013751;28;20018;-88
2024/01/26 06:53:39;;;;;;;0.77;0.63;;;;;;;;;;5014981;28;20468;-88
2024/01/26 06:56:06;;;;;;;2.00;1.00;;;;;;;;;;4999227;28;20091;-88
2024/01/26 06:58:31;;;;;;;2.47;0.63;;;;;;;;;;5016694;28;20080;-87
2024/01/26 07:00:57;;;;;;;0.82;0.77;;;;;;;;;;5019269;28;20040;-88
2024/01/26 07:03:22;;;;;;;0.40;0.40;;;;;;;;;;5026945;28;20123;-88
2024/01/26 07:05:47;;;;;;;1.00;0.45;;;;;;;;;;5018725;28;20025;-88
2024/01/26 07:08:13;;;;;;;1.48;0.88;;;;;;;;;;5016827;28;20543;-88
2024/01/26 07:10:38;;;;;;;0.55;0.55;;;;;;;;;;5015905;28;20036;-88
2024/01/26 07:13:04;;;;;;;0.70;0.70;;;;;;;;;;5017444;28;20030;-88
2024/01/26 07:15:31;;;;;;;0.82;0.50;;;;;;;;;;5016615;28;20029;-88
2024/01/26 07:17:56;;;;;;;0.77;0.70;;;;;;;;;;5016960;28;20480;-87
2024/01/26 07:20:23;;;;;;;1.17;0.93;;;;;;;;;;5017944;28;20045;-87
2024/01/26 07:22:49;;;;;;;1.25;0.73;;;;;;;;;;5017416;28;20014;-89
2024/01/26 07:25:18;;;;;;;0.93;0.75;;;;;;;;;;5021306;28;20682;-89
2024/01/26 07:27:47;;;;;;;2.58;0.50;;;;;;;;;;5017785;28;20018;-88
2024/01/26 07:30:13;;;;;;;0.40;0.40;;;;;;;;;;5018665;28;20057;-88
2024/01/26 07:32:41;;;;;;;0.73;0.73;;;;;;;;;;5024193;28;20022;-89
2024/01/26 07:35:07;;;;;;;0.70;0.70;;;;;;;;;;5018548;28;20041;-88
2024/01/26 07:37:33;;;;;;;0.70;0.60;;;;;;;;;;5016842;28;20672;-87
2024/01/26 07:40:00;;;;;;;0.70;0.70;;;;;;;;;;5017504;28;20018;-87
2024/01/26 07:42:26;;;;;;;1.35;0.57;;;;;;;;;;5018034;28;20032;-87
2024/01/26 07:44:51;;;;;;;0.60;0.55;;;;;;;;;;5016453;28;20054;-88
2024/01/26 07:47:16;;;;;;;1.60;0.77;;;;;;;;;;5017449;28;20029;-87
2024/01/26 07:49:42;;;;;;;0.50;0.50;;;;;;;;;;5015778;28;20034;-86
2024/01/26 07:52:07;;;;;;;0.63;0.55;;;;;;;;;;5014126;28;20026;-86
2024/01/26 07:54:32;;;;;;;1.30;0.55;;;;;;;;;;5017322;28;20133;-87
2024/01/26 07:56:58;;;;;;;0.73;0.60;;;;;;;;;;5016777;28;20118;-87
2024/01/26 07:59:23;;;;;;;0.60;0.60;;;;;;;;;;5015870;28;20026;-90
2024/01/26 08:01:48;;;;;;;0.55;0.50;;;;;;;;;;5016108;28;20061;-87
2024/01/26 08:04:14;;;;;;;0.43;0.43;;;;;;;;;;5015480;28;20014;-89
2024/01/26 08:06:39;;;;;;;1.13;0.80;;;;;;;;;;5003752;28;20033;-88
2024/01/26 08:09:05;;;;;;;2.92;0.60;;;;;;;;;;5019594;28;20052;-88
2024/01/26 08:11:31;;;;;;;0.57;0.57;;;;;;;;;;5021461;28;20040;-88
2024/01/26 08:13:56;;;;;;;0.40;0.40;;;;;;;;;;5015494;28;20586;-88
2024/01/26 08:16:22;;;;;;;0.50;0.50;;;;;;;;;;5017840;28;20026;-89
2024/01/26 08:18:47;;;;;;;0.50;0.50;;;;;;;;;;5018980;28;20473;-88
2024/01/26 08:21:13;;;;;;;0.30;0.30;;;;;;;;;;5017739;28;20030;-89
2024/01/26 08:23:38;;;;;;;0.60;0.60;;;;;;;;;;5016269;28;20029;-88
2024/01/26 08:26:03;;;;;;;0.77;0.73;;;;;;;;;;5017420;28;20040;-88
2024/01/26 08:28:29;;;;;;;0.65;0.57;;;;;;;;;;5013433;28;20124;-88
2024/01/26 08:30:54;;;;;;;0.50;0.50;;;;;;;;;;5015932;28;20124;-88
2024/01/26 08:33:19;;;;;;;0.70;0.68;;;;;;;;;;5014672;28;20030;-88
2024/01/26 08:35:45;;;;;;;0.45;0.45;;;;;;;;;;5014308;28;20057;-88
2024/01/26 08:38:10;;;;;;;0.63;0.63;;;;;;;;;;5017708;28;20527;-87
2024/01/26 08:40:35;;;;;;;0.70;0.70;;;;;;;;;;5015625;28;20021;-88
2024/01/26 08:43:01;;;;;;;1.05;0.50;;;;;;;;;;5016462;28;20117;-88
2024/01/26 08:45:26;;;;;;;0.57;0.57;;;;;;;;;;5015901;28;20030;-88
2024/01/26 08:47:51;;;;;;;0.70;0.63;;;;;;;;;;5016895;28;20093;-88
2024/01/26 08:50:17;;;;;;;1.25;0.70;;;;;;;;;;5015749;28;20092;-88
2024/01/26 08:52:42;;;;;;;0.75;0.60;;;;;;;;;;5014404;28;20400;-88
2024/01/26 08:55:08;;;;;;;0.73;0.70;;;;;;;;;;5015216;28;20030;-88
2024/01/26 08:57:33;;;;;;;0.45;0.45;;;;;;;;;;5017234;28;20041;-89
2024/01/26 09:00:00;;;;;;;0.52;0.52;;;;;;;;;;5015597;28;20033;-89
2024/01/26 09:02:25;;;;;;;0.35;0.35;;;;;;;;;;5014587;28;20022;-90
2024/01/26 09:04:53;;;;;;;2.15;0.32;;;;;;;;;;5016365;28;20033;-89
2024/01/26 09:07:21;;;;;;;0.68;0.68;;;;;;;;;;5018239;28;20101;-90
2024/01/26 09:09:47;;;;;;;1.13;0.70;;;;;;;;;;5016558;28;20018;-89
2024/01/26 09:12:12;;;;;;;0.65;0.65;;;;;;;;;;5016068;28;20034;-90
2024/01/26 09:14:38;;;;;;;0.77;0.77;;;;;;;;;;5016882;28;20025;-89
2024/01/26 09:17:03;;;;;;;1.65;0.85;;;;;;;;;;5012433;28;20021;-89
2024/01/26 09:19:28;;;;;;;0.60;0.60;;;;;;;;;;5013131;28;20040;-90
2024/01/26 09:21:54;;;;;;;1.00;0.60;;;;;;;;;;5014737;28;20025;-88
2024/01/26 09:24:19;;;;;;;0.50;0.50;;;;;;;;;;5016568;28;20034;-88
2024/01/26 09:26:44;;;;;;;0.70;0.70;;;;;;;;;;5014493;28;20475;-88
2024/01/26 09:29:10;;;;;;;0.77;0.47;;;;;;;;;;5014486;28;20476;-88
2024/01/26 09:31:35;;;;;;;1.08;0.60;;;;;;;;;;5014519;28;20458;-89
2024/01/26 09:34:01;;;;;;;0.75;0.75;;;;;;;;;;5026772;28;20041;-89
2024/01/26 09:36:26;;;;;;;1.52;0.82;;;;;;;;;;5021611;28;20057;-88
2024/01/26 09:38:51;;;;;;;0.47;0.47;;;;;;;;;;5013939;28;20026;-88
2024/01/26 09:41:17;;;;;;;0.65;0.65;;;;;;;;;;5013552;28;20014;-89
2024/01/26 09:43:43;;;;;;;1.52;0.80;;;;;;;;;;5014545;28;20109;-87
2024/01/26 09:46:09;;;;;;;2.40;0.60;;;;;;;;;;5017715;28;20117;-86
2024/01/26 09:48:34;;;;;;;1.15;0.80;;;;;;;;;;5016134;28;20388;-86
2024/01/26 09:51:01;;;;;;;1.98;0.40;;;;;;;;;;5015020;28;20022;-87
2024/01/26 09:53:29;;;;;;;0.50;0.50;;;;;;;;;;5015350;28;20022;-86
2024/01/26 09:55:55;;;;;;;0.60;0.60;;;;;;;;;;5013478;28;20141;-88
2024/01/26 09:58:21;;;;;;;0.52;0.52;;;;;;;;;;5014342;28;20488;-87
2024/01/26 10:00:47;;;;;;;1.00;0.70;;;;;;;;;;5016159;28;20026;-87
2024/01/26 10:03:13;;;;;;;0.65;0.65;;;;;;;;;;5016476;28;20028;-86
2024/01/26 10:05:39;;;;;;;0.77;0.55;;;;;;;;;;5017126;28;20084;-87
2024/01/26 10:08:08;;;;;;;0.50;0.50;;;;;;;;;;5015744;28;20018;-87
2024/01/26 10:10:34;;;;;;;0.60;0.60;;;;;;;;;;5016096;28;20040;-86
2024/01/26 10:12:59;;;;;;;1.58;1.10;;;;;;;;;;5017049;28;20108;-86
2024/01/26 10:15:24;;;;;;;1.40;1.13;;;;;;;;;;5015784;28;20461;-86
2024/01/26 10:17:56;;;;;;;0.45;0.45;;;;;;;;;;5012070;28;20030;-86
2024/01/26 10:20:21;;;;;;;1.47;1.13;;;;;;;;;;5007965;28;20176;-86
2024/01/26 10:22:47;;;;;;;0.63;0.55;;;;;;;;;;5009864;28;20334;-86
2024/01/26 10:25:13;;;;;;;1.55;0.43;;;;;;;;;;5011576;28;20029;-86
2024/01/26 10:27:40;;;;;;;0.90;0.90;;;;;;;;;;5011245;28;20026;-87
2024/01/26 10:30:06;;;;;;;0.47;0.47;;;;;;;;;;5012046;28;20018;-87
2024/01/26 10:32:32;;;;;;;0.63;0.63;;;;;;;;;;5018900;28;20025;-88
2024/01/26 10:35:00;;;;;;;0.70;0.70;;;;;;;;;;5019216;28;20108;-87
2024/01/26 10:37:28;;;;;;;0.50;0.50;;;;;;;;;;5020683;28;20032;-87
2024/01/26 10:39:55;;;;;;;0.47;0.43;;;;;;;;;;5011859;28;20064;-86
2024/01/26 10:42:20;;;;;;;0.55;0.55;;;;;;;;;;5028015;28;20085;-85
2024/01/26 10:44:48;;;;;;;1.27;0.75;;;;;;;;;;5022035;28;20053;-87
2024/01/26 10:47:15;;;;;;;0.50;0.50;;;;;;;;;;5020522;28;20021;-86
2024/01/26 10:49:42;;;;;;;0.50;0.50;;;;;;;;;;5018791;28;20060;-88
2024/01/26 10:52:08;;;;;;;0.82;0.80;;;;;;;;;;5022040;28;20022;-89
2024/01/26 10:54:34;;;;;;;0.98;0.65;;;;;;;;;;5018733;28;20030;-89
2024/01/26 10:57:00;;;;;;;0.30;0.30;;;;;;;;;;5017855;28;20530;-88
2024/01/26 10:59:25;;;;;;;0.75;0.70;;;;;;;;;;5015738;28;20120;-88
2024/01/26 11:01:52;;;;;;;0.50;0.47;;;;;;;;;;5017407;28;20089;-89
2024/01/26 11:04:18;;;;;;;0.70;0.70;;;;;;;;;;5018291;28;20022;-89
2024/01/26 11:06:44;;;;;;;0.70;0.70;;;;;;;;;;5023606;28;20085;-88
2024/01/26 11:09:15;;;;;;;2.05;0.50;;;;;;;;;;5017907;28;20034;-89
2024/01/26 11:11:41;;;;;;;1.85;0.88;;;;;;;;;;5018305;28;20415;-87
2024/01/26 11:14:11;;;;;;;0.45;0.45;;;;;;;;;;5019845;28;20018;-89
2024/01/26 11:16:41;;;;;;;1.95;0.57;;;;;;;;;;5020395;28;20025;-88
2024/01/26 11:19:07;;;;;;;0.77;0.77;;;;;;;;;;5020420;28;20025;-88
2024/01/26 11:21:37;;;;;;;1.60;0.70;;;;;;;;;;5031696;28;20056;-90
2024/01/26 11:24:14;;;;;;;4.70;0.82;;;;;;;;;;5023749;28;20030;-88
2024/01/26 11:26:40;;;;;;;0.70;0.70;;;;;;;;;;5020070;28;20080;-87
2024/01/26 11:29:12;;;;;;;1.48;0.63;;;;;;;;;;5021031;28;20124;-87
2024/01/26 11:31:44;;;;;;;0.57;0.57;;;;;;;;;;5021490;28;20030;-87
2024/01/26 11:34:19;;;;;;;1.10;0.82;;;;;;;;;;5020513;28;20029;-88
2024/01/26 11:36:45;;;;;;;0.85;0.40;;;;;;;;;;5021232;28;20080;-87
2024/01/26 11:39:13;;;;;;;0.50;0.40;;;;;;;;;;5022217;28;20036;-87
2024/01/26 11:41:44;;;;;;;0.65;0.60;;;;;;;;;;5019069;28;20018;-89
2024/01/26 11:44:20;;;;;;;0.30;0.30;;;;;;;;;;5022118;28;20022;-88
2024/01/26 11:46:45;;;;;;;0.70;0.55;;;;;;;;;;5019570;28;20028;-88
2024/01/26 11:49:11;;;;;;;4.18;0.98;;;;;;;;;;5025170;28;20026;-87
2024/01/26 11:51:36;;;;;;;0.50;0.50;;;;;;;;;;5021641;28;20365;-88
2024/01/26 11:54:01;;;;;;;0.70;0.70;;;;;;;;;;5025169;28;20010;-89
2024/01/26 11:56:27;;;;;;;0.52;0.52;;;;;;;;;;5026016;28;20076;-87
2024/01/26 11:58:53;;;;;;;0.60;0.60;;;;;;;;;;5023609;28;20041;-89
2024/01/26 12:01:21;;;;;;;0.50;0.50;;;;;;;;;;5021162;28;20026;-89
2024/01/26 12:03:46;;;;;;;2.60;0.60;;;;;;;;;;5021333;28;20018;-88
2024/01/26 12:06:12;;;;;;;0.55;0.55;;;;;;;;;;5023003;28;20075;-88
2024/01/26 12:08:38;;;;;;;2.25;0.68;;;;;;;;;;5031371;28;20041;-88
2024/01/26 12:11:04;;;;;;;0.80;0.80;;;;;;;;;;5036802;28;20034;-90
2024/01/26 12:13:29;;;;;;;0.63;0.63;;;;;;;;;;5036990;28;20017;-88
2024/01/26 12:15:55;;;;;;;0.60;0.60;;;;;;;;;;5029674;28;20065;-88
2024/01/26 12:18:22;;;;;;;0.60;0.60;;;;;;;;;;5023501;28;20053;-86
2024/01/26 12:20:48;;;;;;;0.40;0.40;;;;;;;;;;5024286;28;20108;-89
2024/01/26 12:23:17;;;;;;;0.32;0.32;;;;;;;;;;5031907;28;20052;-89
2024/01/26 12:25:43;;;;;;;0.50;0.50;;;;;;;;;;5023839;28;20412;-87
2024/01/26 12:28:08;;;;;;;1.48;0.57;;;;;;;;;;5020817;28;20049;-87
2024/01/26 12:30:34;;;;;;;0.52;0.52;;;;;;;;;;5019033;28;20025;-88
2024/01/26 12:33:07;;;;;;;0.35;0.35;;;;;;;;;;5018730;28;20026;-86
2024/01/26 12:35:46;;;;;;;0.93;0.77;;;;;;;;;;5018170;28;20108;-87
2024/01/26 12:38:11;;;;;;;0.52;0.50;;;;;;;;;;5017257;28;20033;-87
2024/01/26 12:40:36;;;;;;;0.52;0.52;;;;;;;;;;5016027;28;20029;-87
2024/01/26 12:43:04;;;;;;;0.57;0.57;;;;;;;;;;5018143;28;20754;-86
2024/01/26 12:45:30;;;;;;;0.13;0.13;;;;;;;;;;5018920;28;20030;-86
2024/01/26 12:47:55;;;;;;;0.30;0.30;;;;;;;;;;5016663;28;20026;-86
2024/01/26 12:50:21;;;;;;;0.30;0.30;;;;;;;;;;5014168;28;20026;-85
2024/01/26 12:52:47;;;;;;;0.63;0.43;;;;;;;;;;5018104;28;20387;-86
2024/01/26 12:55:13;;;;;;;0.30;0.30;;;;;;;;;;5017433;28;20018;-86
2024/01/26 12:57:38;;;;;;;0.35;0.35;;;;;;;;;;5017335;28;20030;-86
2024/01/26 13:00:05;;;;;;;0.28;0.28;;;;;;;;;;5019201;28;20555;-85
2024/01/26 13:02:31;;;;;;;0.38;0.38;;;;;;;;;;5015852;28;20034;-86
2024/01/26 13:05:00;;;;;;;0.38;0.38;;;;;;;;;;5015879;28;20029;-86
2024/01/26 13:07:25;;;;;;;2.95;0.98;;;;;;;;;;5016160;28;20050;-88
2024/01/26 13:09:50;;;;;;;0.40;0.40;;;;;;;;;;5017164;28;20029;-86
2024/01/26 13:12:17;;;;;;;1.90;1.40;;;;;;;;;;5017492;28;20049;-86
2024/01/26 13:14:42;;;;;;;1.02;1.02;;;;;;;;;;5016942;28;20620;-86
2024/01/26 13:17:08;;;;;;;0.57;0.57;;;;;;;;;;5018320;28;20533;-90
2024/01/26 13:19:33;;;;;;;1.23;1.13;;;;;;;;;;5029745;28;20080;-89
2024/01/26 13:21:59;;;;;;;1.70;1.60;;;;;;;;;;5015478;28;20061;-86
2024/01/26 13:24:25;;;;;;;1.10;1.10;;;;;;;;;;5018867;28;20085;-87
2024/01/26 13:26:50;;;;;;;0.93;0.93;;;;;;;;;;5000792;28;20073;-88
2024/01/26 13:29:16;;;;;;;0.90;0.90;;;;;;;;;;4998163;28;20033;-88
2024/01/26 13:31:41;;;;;;;1.00;1.00;;;;;;;;;;5010314;28;20033;-89
2024/01/26 13:34:09;;;;;;;1.52;1.42;;;;;;;;;;5015800;28;20060;-88
2024/01/26 13:36:34;;;;;;;2.45;1.60;;;;;;;;;;5017682;28;20022;-88
2024/01/26 13:39:00;;;;;;;1.20;1.20;;;;;;;;;;5016375;28;20033;-88
2024/01/26 13:41:25;;;;;;;0.95;0.60;;;;;;;;;;5020960;28;20305;-89
2024/01/26 13:43:54;;;;;;;0.93;0.93;;;;;;;;;;5020899;28;20049;-87
2024/01/26 13:46:19;;;;;;;0.93;0.93;;;;;;;;;;5019636;28;20065;-86
2024/01/26 13:48:44;;;;;;;0.80;0.80;;;;;;;;;;5018133;28;20025;-87
2024/01/26 13:51:10;;;;;;;0.70;0.70;;;;;;;;;;5017695;28;20482;-88
2024/01/26 13:53:35;;;;;;;1.15;0.80;;;;;;;;;;5020109;28;20384;-87
2024/01/26 13:56:04;;;;;;;0.80;0.80;;;;;;;;;;5018935;28;20029;-87
2024/01/26 13:58:29;;;;;;;0.63;0.63;;;;;;;;;;5020274;28;20028;-86
2024/01/26 14:00:55;;;;;;;0.32;0.32;;;;;;;;;;5018972;28;20524;-86
2024/01/26 14:03:20;;;;;;;0.57;0.45;;;;;;;;;;5018737;28;20026;-85
2024/01/26 14:05:46;;;;;;;0.45;0.45;;;;;;;;;;5009587;28;20054;-86
2024/01/26 14:08:11;;;;;;;0.20;0.20;;;;;;;;;;5011338;28;20072;-86
2024/01/26 14:10:37;;;;;;;0.40;0.40;;;;;;;;;;5014625;28;20082;-86
2024/01/26 14:13:04;;;;;;;0.98;0.65;;;;;;;;;;5013914;28;21159;-86
2024/01/26 14:15:29;;;;;;;0.63;0.43;;;;;;;;;;5021352;28;20029;-86
2024/01/26 14:17:56;;;;;;;0.30;0.30;;;;;;;;;;5020580;28;20026;-87
2024/01/26 14:20:21;;;;;;;0.40;0.40;;;;;;;;;;5022058;28;20081;-87
2024/01/26 14:22:50;;;;;;;0.30;0.30;;;;;;;;;;5022440;28;20022;-88
2024/01/26 14:25:20;;;;;;;0.22;0.22;;;;;;;;;;5029301;28;20030;-86
2024/01/26 14:27:49;;;;;;;1.17;0.35;;;;;;;;;;5022417;28;20026;-87
2024/01/26 14:30:15;;;;;;;0.52;0.52;;;;;;;;;;5020845;28;20025;-88
2024/01/26 14:32:41;;;;;;;0.68;0.60;;;;;;;;;;5023008;28;20093;-87
2024/01/26 14:35:09;;;;;;;0.40;0.40;;;;;;;;;;5023867;28;20212;-87